Thursday, December 18, 2014
22:23 UTC
  |  Log In   |  Register Free
Airport Search:

Tyler Pounds Regional Airport
(KTYR)

FAA data valid effective November 13, 2014 - January 08, 2015 (unless otherwise noted).

 
 
 
 
 
 
 
 
 
 
 
 
 
 

Current Aviation Weather for Tyler Pounds Regional Airport (KTYR)

The most recent METAR observation for KTYR was updated at: 2121
METAR Summary (Translated METAR)
KTYR
182053Z 04004KT 6SM BR OVC004 10/08 A3010 RMK AO2 SLP192 T01000083 58010
KJDD
182055Z AUTO 00000KT 5SM BR OVC006 09/08 A3012 RMK AO2
(23.8 nm NW from KTYR)
KF44
182055Z AUTO 04004KT 7SM OVC005 09/08 A3009 RMK AO2
(24.5 nm SW from KTYR)
TAF Summary (Translated TAF)
KTYR
181724Z 1818/1918 08004KT 6SM BR OVC005 FM182100 06004KT P6SM SCT005 OVC011 FM190300 06005KT P6SM OVC007 FM190800 05005KT P6SM VCSH OVC006 TEMPO 1912/1916 4SM SHRA BR OVC004 FM191600 04007KT 2SM -RA BR OVC004
  Airport Weather Conditions for KTYR

 Current Weather at TYR
50° F
Overcast
East winds at 6.9 mph
TYR NOAA Radar

Pressure: 30.10 in
Humidity: 86%
Wind: East at 6.9 MPH (6 KT)
Dew Point: 46.0°F
Visibility: 7.00 mi


Airport Weather Forecast for KTYR

Translated METAR and TAF for KTYR
Translated METAR for KTYR (2224 UTC 18 December 2014)
found at http://aviationweather.gov/adds/metars/
 
METAR text: KTYR 182153Z 07006KT 7SM OVC005 10/08 A3010 RMK AO2 SLP193 T01000078
Conditions at: KTYR (TYLER , TX, US) observed 2153 UTC 18 December 2014
Temperature: 10.0°C (50°F)
Dewpoint: 7.8°C (46°F) [RH = 86%]
Pressure (altimeter): 30.10 inches Hg (1019.4 mb)
[Sea-level pressure: 1019.3 mb]
Winds: from the ENE (70 degrees) at 7 MPH (6 knots; 3.1 m/s)
Visibility: 7 miles (11 km)
Ceiling: 500 feet AGL
Clouds: overcast cloud deck at 500 feet AGL
Weather: no significant weather observed at this time
Translated TAF for KTYR
Forecast for: KTYR (TYLER , TX, US)
TAF Text: KTYR 181724Z 1818/1918 08004KT 6SM BR OVC005
Forecast period: 1800 to 2100 UTC 18 December 2014
Forecast type: FROM: standard forecast or significant change
Winds: from the E (80 degrees) at 5 MPH (4 knots; 2.1 m/s)
Visibility: 6 miles (10 km)
Ceiling: 500 feet AGL
Clouds: overcast cloud deck at 500 feet AGL
Weather: BR  (mist)
TAF Text: FM182100 06004KT P6SM SCT005 OVC011
Forecast period: 2100 UTC 18 December 2014 to 0300 UTC 19 December 2014
Forecast type: FROM: standard forecast or significant change
Winds: from the ENE (60 degrees) at 5 MPH (4 knots; 2.1 m/s)
Visibility: 6 or more miles (10+ km)
Ceiling: 1100 feet AGL
Clouds: scattered clouds at 500 feet AGL
overcast cloud deck at 1100 feet AGL
Weather: no significant weather forecast for this period
TAF Text: FM190300 06005KT P6SM OVC007
Forecast period: 0300 to 0800 UTC 19 December 2014
Forecast type: FROM: standard forecast or significant change
Winds: from the ENE (60 degrees) at 6 MPH (5 knots; 2.6 m/s)
Visibility: 6 or more miles (10+ km)
Ceiling: 700 feet AGL
Clouds: overcast cloud deck at 700 feet AGL
Weather: no significant weather forecast for this period
TAF Text: FM190800 05005KT P6SM VCSH OVC006
Forecast period: 0800 to 1600 UTC 19 December 2014
Forecast type: FROM: standard forecast or significant change
Winds: from the NE (50 degrees) at 6 MPH (5 knots; 2.6 m/s)
Visibility: 6 or more miles (10+ km)
Ceiling: 600 feet AGL
Clouds: overcast cloud deck at 600 feet AGL
Weather: VCSH  (showers in vicinity)
TAF Text: TEMPO 1912/1916 4SM SHRA BR OVC004
Forecast period: 1200 to 1600 UTC 19 December 2014
Forecast type: TEMPORARY: The following changes expected for less than half the time period
Visibility: 4 miles (6 km)
Ceiling: 400 feet AGL
Clouds: overcast cloud deck at 400 feet AGL
Weather: SHRA BR  (rain showers, mist)
TAF Text: FM191600 04007KT 2SM -RA BR OVC004
Forecast period: 1600 to 1800 UTC 19 December 2014
Forecast type: FROM: standard forecast or significant change
Winds: from the NE (40 degrees) at 8 MPH (7 knots; 3.6 m/s)
Visibility: 2.00 miles (3.22 km)
Ceiling: 400 feet AGL
Clouds: overcast cloud deck at 400 feet AGL
Weather: -RA BR  (light rain, mist)

Find All Airport Services Find A Hotel Find A Rental Car Find A Golf Course Find A Restaurant $100 Hamburger



FBO's on the Field
FBO Company Facility Photos Services Transportation Aviation Fuel Prices: Prices include tax
Catering Weather Repair Courtesy Rental Type 100LL JetA JetA+ MOGAS 8087
 
Jet Center of Tyler

Currently rated 5 by 1 person
FS:Phillips 66
Last Updated: Dec-12
Login to update fuel prices
SS:
Contact Jet Center of TylerMore FBO Information
 
Johnson Aviation, Inc

Currently rated 4.1 by 2 people
FS:Avfuel
Last Updated: Nov-18
Login to update fuel prices
SS:
Contact Johnson Aviation, IncMore FBO Information
 
Add another FBO Facility Photos Catering Weather Repair Courtesy Rental Type 100LL JetA JetA+ MOGAS 8087
Services Transportation Aviation Fuel Prices: Prices include tax


model-print
model-print
model-print
model-print